Time;durP1;ratioP1;P1;durP2;ratioP2;P2;SDS_P1;SDS_P2;PMS_P1;PMS_P2;Temp;Humidity;BMP_temperature;BMP_pressure;BME280_temperature;BME280_humidity;BME280_pressure;Samples;Min_cycle;Max_cycle;Signal;HPM_P1;HPM_P2
2022/12/01 00:00:40;;;;;;;18.65;11.90;;;5.60;99.90;;;;;;5070386;28;20481;-78
2022/12/01 00:03:06;;;;;;;23.48;13.18;;;5.60;99.90;;;;;;5071370;28;20031;-78
2022/12/01 00:05:31;;;;;;;19.23;12.13;;;5.60;99.90;;;;;;5071777;28;20490;-79
2022/12/01 00:07:58;;;;;;;17.50;11.57;;;5.50;99.90;;;;;;5070036;28;20558;-78
2022/12/01 00:10:24;;;;;;;18.75;11.23;;;5.50;99.90;;;;;;5071379;28;20048;-79
2022/12/01 00:12:54;;;;;;;20.40;12.45;;;5.40;99.90;;;;;;5071391;28;20025;-78
2022/12/01 00:15:20;;;;;;;21.55;13.02;;;5.30;99.90;;;;;;5071334;28;20082;-78
2022/12/01 00:17:47;;;;;;;21.63;13.63;;;5.20;99.90;;;;;;5071548;28;20032;-78
2022/12/01 00:20:15;;;;;;;21.90;13.25;;;5.20;99.90;;;;;;5071834;28;20031;-78
2022/12/01 00:22:44;;;;;;;18.77;12.52;;;5.40;99.90;;;;;;5086373;28;20024;-78
2022/12/01 00:25:12;;;;;;;19.75;12.75;;;5.50;99.90;;;;;;5086638;28;20059;-78
2022/12/01 00:27:38;;;;;;;18.70;12.02;;;5.40;99.90;;;;;;5070548;28;20028;-78
2022/12/01 00:30:05;;;;;;;19.60;12.48;;;5.40;99.90;;;;;;5071091;28;20020;-78
2022/12/01 00:32:31;;;;;;;23.30;13.75;;;5.40;99.90;;;;;;5069805;28;20119;-78
2022/12/01 00:34:57;;;;;;;21.85;13.20;;;5.40;99.90;;;;;;5071034;28;20568;-78
2022/12/01 00:37:23;;;;;;;20.17;11.98;;;5.50;99.90;;;;;;5070784;28;20025;-78
2022/12/01 00:39:48;;;;;;;21.52;13.43;;;5.60;99.90;;;;;;5069497;28;20060;-78
2022/12/01 00:42:14;;;;;;;22.77;13.18;;;5.60;99.90;;;;;;5070725;28;20551;-78
2022/12/01 00:44:40;;;;;;;21.90;13.23;;;5.70;99.90;;;;;;5070928;28;20090;-78
2022/12/01 00:47:05;;;;;;;21.13;13.13;;;5.70;99.90;;;;;;5070456;28;20028;-78
2022/12/01 00:49:31;;;;;;;21.42;13.27;;;5.60;99.90;;;;;;5071005;28;20021;-78
2022/12/01 00:51:57;;;;;;;19.23;12.18;;;5.70;99.90;;;;;;5070773;28;20021;-78
2022/12/01 00:54:23;;;;;;;20.63;12.10;;;5.60;99.90;;;;;;5070342;28;20031;-78
2022/12/01 00:56:48;;;;;;;19.98;12.43;;;5.60;99.90;;;;;;5071595;28;20553;-78
2022/12/01 00:59:14;;;;;;;22.77;13.63;;;5.70;99.90;;;;;;5089786;28;20028;-78
2022/12/01 01:01:40;;;;;;;21.73;13.25;;;5.60;99.90;;;;;;5068873;28;20029;-78
2022/12/01 01:04:05;;;;;;;19.15;12.20;;;5.60;99.90;;;;;;5070783;28;20029;-79
2022/12/01 01:06:31;;;;;;;19.55;12.88;;;5.60;99.90;;;;;;5070580;28;20052;-79
2022/12/01 01:08:57;;;;;;;18.77;11.60;;;5.60;99.90;;;;;;5070742;28;20055;-78
2022/12/01 01:11:23;;;;;;;19.38;12.48;;;5.60;99.90;;;;;;5068880;28;20603;-78
2022/12/01 01:13:49;;;;;;;20.20;12.55;;;5.60;99.90;;;;;;5058801;28;20073;-78
2022/12/01 01:16:20;;;;;;;20.10;12.20;;;5.70;99.90;;;;;;5070833;28;20025;-79
2022/12/01 01:18:46;;;;;;;18.95;12.45;;;5.60;99.90;;;;;;5063689;28;20036;-78
2022/12/01 01:21:14;;;;;;;21.65;13.23;;;5.60;99.90;;;;;;5088816;28;20109;-78
2022/12/01 01:23:40;;;;;;;20.70;12.07;;;5.60;99.90;;;;;;5083083;28;20055;-79
2022/12/01 01:26:10;;;;;;;21.52;13.27;;;5.70;99.90;;;;;;5070335;28;20505;-78
2022/12/01 01:28:37;;;;;;;23.08;12.90;;;5.60;99.90;;;;;;5069269;28;20025;-78
2022/12/01 01:31:11;;;;;;;20.27;12.52;;;5.60;99.90;;;;;;5070452;28;20516;-78
2022/12/01 01:33:37;;;;;;;21.63;13.23;;;5.50;99.90;;;;;;5069005;28;20028;-79
2022/12/01 01:36:04;;;;;;;19.10;12.70;;;5.50;99.90;;;;;;5070033;28;20020;-78
2022/12/01 01:38:30;;;;;;;23.45;13.65;;;5.40;99.90;;;;;;5070106;28;20525;-78
2022/12/01 01:40:56;;;;;;;21.85;14.10;;;5.40;99.90;;;;;;5069174;28;20145;-78
2022/12/01 01:43:42;;;;;;;19.73;12.63;;;5.40;99.90;;;;;;5070206;28;20036;-78
2022/12/01 01:46:23;;;;;;;22.08;14.45;;;5.50;99.90;;;;;;5070536;28;20099;-78
2022/12/01 01:48:55;;;;;;;23.17;14.30;;;5.50;99.90;;;;;;5057949;28;20017;-78
2022/12/01 01:51:29;;;;;;;22.27;14.35;;;5.40;99.90;;;;;;5088615;28;20086;-78
2022/12/01 01:54:00;;;;;;;22.10;15.07;;;5.50;99.90;;;;;;5089166;28;20111;-78
2022/12/01 01:56:27;;;;;;;20.92;13.15;;;5.40;99.90;;;;;;5090841;28;20031;-78
2022/12/01 01:58:53;;;;;;;23.70;14.20;;;5.50;99.90;;;;;;5090465;28;20110;-78
2022/12/01 02:01:19;;;;;;;23.02;14.73;;;5.60;99.90;;;;;;5071237;28;20079;-78
2022/12/01 02:03:46;;;;;;;22.88;13.95;;;5.40;99.90;;;;;;5070023;28;20516;-79
2022/12/01 02:06:12;;;;;;;22.20;13.55;;;5.30;99.90;;;;;;5085184;28;20028;-78
2022/12/01 02:08:38;;;;;;;22.05;14.23;;;5.30;99.90;;;;;;5069595;28;20035;-78
2022/12/01 02:11:13;;;;;;;21.52;13.93;;;5.20;99.90;;;;;;5069725;28;20033;-78
2022/12/01 02:13:59;;;;;;;22.55;14.07;;;5.30;99.90;;;;;;5074789;28;20020;-78
2022/12/01 02:16:38;;;;;;;22.73;13.82;;;5.40;99.90;;;;;;5007199;28;20042;-78
2022/12/01 02:19:39;;;;;;;21.17;13.35;;;5.50;99.90;;;;;;5006713;28;20058;-79
2022/12/01 02:22:18;;;;;;;22.58;13.15;;;5.60;99.90;;;;;;5007652;28;20042;-78
2022/12/01 02:25:31;;;;;;;19.67;12.80;;;5.40;99.90;;;;;;4990970;28;20117;-78
2022/12/01 02:27:56;;;;;;;21.80;12.98;;;5.50;99.90;;;;;;4990666;28;20045;-78
2022/12/01 02:30:43;;;;;;;20.33;12.70;;;5.60;99.90;;;;;;4991278;28;20120;-78
2022/12/01 02:34:07;;;;;;;23.33;13.50;;;5.60;99.90;;;;;;5007478;28;20022;-78
2022/12/01 02:37:11;;;;;;;22.42;13.30;;;5.50;99.90;;;;;;4930570;29;20497;-78
2022/12/01 02:39:45;;;;;;;23.42;13.88;;;5.40;99.90;;;;;;4892543;29;20028;-78
2022/12/01 02:42:49;;;;;;;23.55;13.32;;;5.40;99.90;;;;;;4892126;29;20110;-78
2022/12/01 02:45:27;;;;;;;21.98;13.63;;;5.40;99.90;;;;;;4892439;29;20201;-78
2022/12/01 02:47:55;;;;;;;23.88;13.73;;;5.40;99.90;;;;;;4885597;29;20104;-78
2022/12/01 02:50:24;;;;;;;23.30;14.35;;;5.30;99.90;;;;;;4887401;29;20097;-78
2022/12/01 02:52:50;;;;;;;22.02;14.32;;;5.30;99.90;;;;;;4883938;28;20035;-78
2022/12/01 02:55:16;;;;;;;23.58;15.07;;;5.40;99.90;;;;;;4971979;28;20089;-78
2022/12/01 02:57:42;;;;;;;22.70;14.73;;;5.40;99.90;;;;;;4971856;28;20476;-78
2022/12/01 03:00:12;;;;;;;25.13;15.38;;;5.40;99.90;;;;;;4958999;28;20484;-78
2022/12/01 03:03:12;;;;;;;24.95;14.80;;;5.30;99.90;;;;;;4971150;28;20027;-78
2022/12/01 03:06:13;;;;;;;21.58;13.35;;;5.30;99.90;;;;;;4969239;28;20114;-78
2022/12/01 03:09:07;;;;;;;23.90;14.10;;;5.40;99.90;;;;;;4952751;28;20039;-78
2022/12/01 03:11:47;;;;;;;22.67;14.60;;;5.50;99.90;;;;;;5016202;28;20030;-78
2022/12/01 03:14:28;;;;;;;22.33;13.90;;;5.50;99.90;;;;;;5058861;28;20032;-78
2022/12/01 03:16:56;;;;;;;23.63;15.02;;;5.60;99.90;;;;;;5070970;28;20143;-78
2022/12/01 03:19:34;;;;;;;21.50;13.40;;;5.40;99.90;;;;;;5072279;28;20028;-78
2022/12/01 03:22:07;;;;;;;23.40;14.50;;;5.50;99.90;;;;;;5072460;28;20066;-78
2022/12/01 03:24:35;;;;;;;22.30;14.02;;;5.50;99.90;;;;;;5072367;28;20095;-78
2022/12/01 03:27:02;;;;;;;26.80;16.27;;;5.30;99.90;;;;;;5079746;28;20036;-78
2022/12/01 03:29:40;;;;;;;23.25;14.18;;;5.30;99.90;;;;;;5090581;28;20020;-78
2022/12/01 03:32:18;;;;;;;23.92;14.55;;;5.50;99.90;;;;;;5072206;28;20015;-78
2022/12/01 03:34:52;;;;;;;22.67;13.43;;;5.60;99.90;;;;;;5072319;28;20024;-78
2022/12/01 03:37:35;;;;;;;22.00;13.80;;;5.60;99.90;;;;;;5071075;28;20025;-78
2022/12/01 03:40:05;;;;;;;22.73;13.75;;;5.60;99.90;;;;;;5070987;28;20036;-78
2022/12/01 03:42:35;;;;;;;22.60;14.15;;;5.60;99.90;;;;;;5070830;28;20489;-78
2022/12/01 03:45:06;;;;;;;22.83;14.63;;;5.40;99.90;;;;;;5072123;28;20032;-78
2022/12/01 03:47:34;;;;;;;19.92;12.27;;;5.40;99.90;;;;;;5071714;28;20025;-78
2022/12/01 03:50:01;;;;;;;23.60;13.60;;;5.40;99.90;;;;;;5087365;28;20159;-78
2022/12/01 03:53:08;;;;;;;23.90;13.40;;;5.40;99.90;;;;;;5072252;28;20020;-78
2022/12/01 03:55:40;;;;;;;26.90;14.82;;;5.40;99.90;;;;;;5063600;28;20056;-78
2022/12/01 03:58:41;;;;;;;24.23;15.30;;;5.20;99.90;;;;;;5087187;28;20031;-78
2022/12/01 04:01:07;;;;;;;26.55;16.65;;;5.10;99.90;;;;;;4992836;28;20034;-78
2022/12/01 04:03:33;;;;;;;28.15;15.88;;;5.10;99.90;;;;;;4978094;28;20053;-78
2022/12/01 04:05:59;;;;;;;26.95;15.95;;;5.10;99.90;;;;;;4998390;28;20025;-78
2022/12/01 04:08:25;;;;;;;26.88;16.38;;;5.10;99.90;;;;;;4990705;28;20051;-78
2022/12/01 04:10:51;;;;;;;28.58;16.67;;;5.10;99.90;;;;;;4973494;28;20030;-78
2022/12/01 04:13:22;;;;;;;29.23;15.80;;;5.10;99.90;;;;;;4990899;28;20148;-78
2022/12/01 04:15:49;;;;;;;;;;;5.20;99.90;;;;;;4974079;28;20022;-78
2022/12/01 04:18:14;;;;;;;26.88;16.23;;;5.20;99.90;;;;;;4990013;28;20429;-78
2022/12/01 04:20:42;;;;;;;29.15;17.50;;;5.10;99.90;;;;;;4989634;28;20023;-78
2022/12/01 04:23:08;;;;;;;30.65;19.15;;;5.00;99.90;;;;;;4989785;28;20034;-78
2022/12/01 04:25:34;;;;;;;28.73;17.25;;;5.10;99.90;;;;;;4973217;28;20046;-78
2022/12/01 04:27:59;;;;;;;28.50;17.58;;;5.10;99.90;;;;;;4973346;28;20554;-78
2022/12/01 04:30:25;;;;;;;27.10;16.83;;;5.20;99.90;;;;;;4988798;28;20539;-78
2022/12/01 04:32:51;;;;;;;25.00;15.45;;;5.30;99.90;;;;;;4973159;28;20078;-78
2022/12/01 04:35:16;;;;;;;27.10;17.00;;;5.20;99.90;;;;;;4989301;28;20036;-78
2022/12/01 04:37:42;;;;;;;30.27;18.40;;;5.20;99.90;;;;;;5062885;28;20040;-78
2022/12/01 04:40:08;;;;;;;27.67;16.98;;;5.10;99.90;;;;;;5069786;28;20517;-78
2022/12/01 04:42:34;;;;;;;31.85;16.73;;;5.20;99.90;;;;;;5070465;28;20052;-78
2022/12/01 04:45:00;;;;;;;31.02;17.75;;;5.20;99.90;;;;;;5070752;28;20509;-78
2022/12/01 04:47:26;;;;;;;33.20;18.63;;;5.00;99.90;;;;;;5067683;28;20421;-78
2022/12/01 04:49:52;;;;;;;31.48;17.33;;;5.10;99.90;;;;;;5060495;28;20485;-78
2022/12/01 04:52:17;;;;;;;29.98;17.48;;;5.10;99.90;;;;;;5070799;28;20420;-78
2022/12/01 04:54:43;;;;;;;28.52;16.88;;;5.10;99.90;;;;;;5069746;28;20483;-78
2022/12/01 04:57:08;;;;;;;29.40;16.35;;;5.10;99.90;;;;;;5070689;28;20462;-78
2022/12/01 04:59:34;;;;;;;28.67;16.35;;;5.10;99.90;;;;;;5070424;28;20047;-78
2022/12/01 05:02:01;;;;;;;27.27;16.08;;;5.10;99.90;;;;;;5070466;28;20054;-78
2022/12/01 05:04:27;;;;;;;24.13;14.32;;;5.10;99.90;;;;;;5071153;28;20119;-78
2022/12/01 05:06:54;;;;;;;23.27;14.70;;;5.10;99.90;;;;;;5074237;28;20556;-78
2022/12/01 05:09:20;;;;;;;28.52;15.60;;;5.20;99.90;;;;;;5070671;28;20021;-78
2022/12/01 05:11:45;;;;;;;27.92;16.15;;;5.10;99.90;;;;;;5070487;28;20374;-78
2022/12/01 05:14:11;;;;;;;25.90;15.85;;;5.10;99.90;;;;;;5068260;28;20442;-78
2022/12/01 05:16:37;;;;;;;27.88;16.13;;;5.00;99.90;;;;;;5070381;28;20443;-78
2022/12/01 05:21:49;;;;;;;26.83;15.68;;;5.00;99.90;;;;;;5071047;28;20043;-78
2022/12/01 05:24:16;;;;;;;23.58;14.55;;;5.00;99.90;;;;;;5069523;28;20025;-78
2022/12/01 05:26:42;;;;;;;27.25;15.63;;;5.10;99.90;;;;;;5070332;28;20044;-78
2022/12/01 05:29:09;;;;;;;26.08;16.05;;;5.00;99.90;;;;;;5083190;28;20108;-78
2022/12/01 05:31:35;;;;;;;23.58;14.20;;;5.00;99.90;;;;;;5088986;28;20020;-78
2022/12/01 05:34:01;;;;;;;23.88;14.80;;;5.20;99.90;;;;;;5088948;28;20446;-78
2022/12/01 05:36:27;;;;;;;23.90;14.05;;;5.10;99.90;;;;;;5090721;28;20168;-78
2022/12/01 05:38:53;;;;;;;24.65;14.30;;;5.10;99.90;;;;;;5090710;28;20493;-78
2022/12/01 05:41:19;;;;;;;23.25;13.30;;;5.10;99.90;;;;;;5089821;28;20024;-78
2022/12/01 05:43:45;;;;;;;25.77;13.70;;;5.10;99.90;;;;;;5088925;28;20028;-78
2022/12/01 05:46:10;;;;;;;23.95;13.70;;;5.10;99.90;;;;;;5090510;28;20085;-78
2022/12/01 05:48:36;;;;;;;25.40;14.00;;;5.00;99.90;;;;;;5075884;28;20051;-78
2022/12/01 05:51:09;;;;;;;26.80;15.23;;;4.80;99.90;;;;;;5070539;28;20021;-78
2022/12/01 05:53:35;;;;;;;24.25;13.88;;;4.90;99.90;;;;;;5068497;28;20394;-78
2022/12/01 05:56:01;;;;;;;25.02;13.80;;;4.80;99.90;;;;;;5070030;28;20046;-78
2022/12/01 05:58:26;;;;;;;25.02;13.18;;;4.80;99.90;;;;;;5070146;28;20025;-78
2022/12/01 06:00:52;;;;;;;24.33;13.38;;;4.80;99.90;;;;;;5069858;28;20371;-78
2022/12/01 06:03:18;;;;;;;23.38;12.95;;;4.70;99.90;;;;;;5070417;28;20056;-78
2022/12/01 06:05:43;;;;;;;24.50;13.77;;;4.70;99.90;;;;;;5068941;28;20397;-78
2022/12/01 06:08:09;;;;;;;23.80;13.40;;;4.70;99.90;;;;;;5068616;28;20033;-78
2022/12/01 06:10:35;;;;;;;21.92;12.68;;;4.80;99.90;;;;;;5069805;28;20538;-78
2022/12/01 06:13:01;;;;;;;20.58;11.60;;;4.80;99.90;;;;;;5069039;28;20551;-78
2022/12/01 06:15:27;;;;;;;20.63;12.15;;;4.80;99.90;;;;;;5090177;28;20018;-78
2022/12/01 06:17:52;;;;;;;16.80;10.48;;;4.80;99.90;;;;;;5089714;28;20032;-78
2022/12/01 06:20:18;;;;;;;19.83;11.52;;;4.80;99.90;;;;;;5089894;28;20025;-78
2022/12/01 06:22:44;;;;;;;16.88;10.25;;;4.50;99.90;;;;;;5090388;28;20043;-78
2022/12/01 06:25:09;;;;;;;19.98;10.90;;;4.60;99.90;;;;;;5091038;28;20507;-78
2022/12/01 06:27:35;;;;;;;18.42;10.73;;;4.50;99.90;;;;;;5094101;28;20028;-78
2022/12/01 06:30:02;;;;;;;15.88;9.38;;;4.50;99.90;;;;;;5093644;28;20508;-78
2022/12/01 06:32:27;;;;;;;15.23;9.68;;;4.50;99.90;;;;;;5093571;28;20103;-78
2022/12/01 06:34:53;;;;;;;15.35;9.57;;;4.70;99.90;;;;;;5092418;28;20465;-78
2022/12/01 06:37:18;;;;;;;16.58;9.27;;;4.50;99.90;;;;;;5093648;28;20379;-78
2022/12/01 06:39:44;;;;;;;14.70;8.70;;;4.70;99.90;;;;;;5093189;28;20085;-78
2022/12/01 06:42:10;;;;;;;14.43;9.18;;;4.90;99.90;;;;;;5093098;28;20402;-78
2022/12/01 06:44:36;;;;;;;12.65;7.80;;;4.60;99.90;;;;;;5093514;28;20073;-78
2022/12/01 06:47:02;;;;;;;16.30;8.98;;;4.60;99.90;;;;;;5093164;28;20473;-78
2022/12/01 06:49:28;;;;;;;15.55;9.00;;;4.50;99.90;;;;;;5073335;28;20025;-78
2022/12/01 06:51:54;;;;;;;15.75;9.25;;;4.40;99.90;;;;;;5072892;28;20163;-78
2022/12/01 06:54:20;;;;;;;15.93;8.77;;;4.20;99.90;;;;;;5073114;28;20027;-78
2022/12/01 06:56:46;;;;;;;13.48;8.18;;;4.20;99.90;;;;;;5085265;28;20405;-78
2022/12/01 06:59:11;;;;;;;15.88;8.98;;;4.40;99.90;;;;;;5090524;28;20028;-78
2022/12/01 07:01:37;;;;;;;15.15;7.70;;;4.30;99.90;;;;;;5088492;28;20520;-78
2022/12/01 07:04:03;;;;;;;11.75;7.72;;;4.30;99.90;;;;;;5072847;28;20028;-78
2022/12/01 07:06:29;;;;;;;13.60;8.15;;;4.20;99.90;;;;;;5076505;28;20028;-77
2022/12/01 07:08:55;;;;;;;10.38;6.50;;;4.50;99.90;;;;;;5057722;28;20025;-78
2022/12/01 07:11:21;;;;;;;10.45;6.15;;;4.70;99.90;;;;;;5086040;28;20020;-78
2022/12/01 07:13:49;;;;;;;10.98;6.70;;;4.80;99.90;;;;;;5083419;28;20025;-78
2022/12/01 07:16:15;;;;;;;12.45;7.28;;;4.70;99.90;;;;;;5072606;28;20017;-78
2022/12/01 07:18:43;;;;;;;10.25;6.40;;;4.70;99.90;;;;;;5072617;28;20019;-78
2022/12/01 07:21:12;;;;;;;9.70;6.43;;;4.70;99.90;;;;;;5088156;28;20036;-78
2022/12/01 07:23:38;;;;;;;11.32;6.63;;;4.70;99.90;;;;;;5072282;28;20108;-78
2022/12/01 07:26:14;;;;;;;8.32;5.90;;;4.70;99.90;;;;;;5071748;28;20102;-78
2022/12/01 07:28:41;;;;;;;10.60;6.20;;;4.50;99.90;;;;;;5071401;28;20024;-78
2022/12/01 07:31:06;;;;;;;9.55;6.13;;;4.70;99.90;;;;;;5072099;28;20494;-78
2022/12/01 07:33:32;;;;;;;10.65;6.25;;;4.60;99.90;;;;;;5072504;28;20051;-78
2022/12/01 07:35:58;;;;;;;9.90;5.97;;;4.50;99.90;;;;;;5074066;28;20029;-78
2022/12/01 07:38:24;;;;;;;12.02;6.97;;;4.40;99.90;;;;;;5091012;28;20524;-78
2022/12/01 07:40:49;;;;;;;8.77;5.80;;;4.20;99.90;;;;;;5079869;28;20398;-78
2022/12/01 07:43:15;;;;;;;8.57;6.05;;;4.20;99.90;;;;;;5092018;28;20555;-78
2022/12/01 07:45:41;;;;;;;9.45;6.45;;;4.20;99.90;;;;;;5090990;28;20031;-78
2022/12/01 07:48:06;;;;;;;10.93;6.55;;;4.20;99.90;;;;;;5081880;28;20032;-79
2022/12/01 07:50:32;;;;;;;9.65;6.55;;;4.10;99.90;;;;;;5066753;28;20561;-78
2022/12/01 07:52:57;;;;;;;10.10;6.05;;;4.20;99.90;;;;;;5078269;28;20065;-78
2022/12/01 07:55:23;;;;;;;12.38;7.43;;;4.10;99.90;;;;;;5076929;28;20056;-78
2022/12/01 07:57:49;;;;;;;11.93;7.03;;;3.90;99.90;;;;;;5080208;28;20497;-78
2022/12/01 08:00:15;;;;;;;11.90;7.03;;;3.80;99.90;;;;;;5080071;28;20398;-78
2022/12/01 08:02:40;;;;;;;24.15;12.05;;;3.90;99.90;;;;;;5070755;28;20058;-79
2022/12/01 08:05:06;;;;;;;23.70;11.75;;;3.70;99.90;;;;;;5071334;28;20040;-79
2022/12/01 08:07:32;;;;;;;19.42;10.40;;;3.70;99.90;;;;;;5071383;28;20028;-77
2022/12/01 08:09:58;;;;;;;17.25;10.77;;;3.60;99.90;;;;;;5071359;28;20020;-80
2022/12/01 08:12:23;;;;;;;27.25;17.13;;;3.80;99.90;;;;;;5069814;28;20405;-79
2022/12/01 08:14:49;;;;;;;24.85;16.65;;;3.70;99.90;;;;;;5085202;28;20478;-79
2022/12/01 08:17:15;;;;;;;21.98;13.98;;;3.70;99.90;;;;;;5091315;28;20465;-79
2022/12/01 08:19:40;;;;;;;20.38;12.38;;;3.70;99.90;;;;;;5092160;28;20032;-78
2022/12/01 08:22:06;;;;;;;17.17;11.38;;;4.00;99.90;;;;;;5091424;28;20032;-78
2022/12/01 08:24:32;;;;;;;27.60;15.88;;;4.00;99.90;;;;;;5086762;28;20016;-78
2022/12/01 08:26:57;;;;;;;25.50;14.23;;;4.10;99.90;;;;;;5069378;28;20437;-78
2022/12/01 08:29:23;;;;;;;24.80;15.50;;;4.20;99.90;;;;;;5070736;28;20503;-78
2022/12/01 08:31:49;;;;;;;22.80;13.70;;;4.10;99.90;;;;;;5070842;28;20494;-79
2022/12/01 08:34:14;;;;;;;21.52;13.40;;;4.20;99.90;;;;;;5069945;28;20031;-79
2022/12/01 08:36:40;;;;;;;19.25;12.10;;;4.30;99.90;;;;;;5071184;28;20037;-79
2022/12/01 08:39:07;;;;;;;19.65;12.55;;;4.40;99.90;;;;;;5071360;28;20048;-79
2022/12/01 08:41:33;;;;;;;17.42;11.20;;;4.50;99.90;;;;;;5070769;28;20056;-80
2022/12/01 08:43:58;;;;;;;17.55;10.52;;;4.50;99.90;;;;;;5070914;28;20785;-79
2022/12/01 08:46:30;;;;;;;19.38;11.57;;;4.20;99.90;;;;;;5070088;28;20035;-80
2022/12/01 08:48:56;;;;;;;17.85;11.95;;;4.10;99.90;;;;;;5070174;28;20024;-80
2022/12/01 08:51:21;;;;;;;16.17;10.73;;;4.30;99.90;;;;;;5073969;28;20075;-80
2022/12/01 08:53:48;;;;;;;18.58;11.80;;;4.40;99.90;;;;;;5070632;28;20096;-79
2022/12/01 08:56:36;;;;;;;20.92;12.20;;;4.40;99.90;;;;;;5086184;28;20043;-79
2022/12/01 08:59:03;;;;;;;23.33;13.57;;;4.30;99.90;;;;;;5070886;28;20024;-80
2022/12/01 09:01:29;;;;;;;23.50;14.05;;;4.20;99.90;;;;;;5083160;28;20028;-79
2022/12/01 09:04:07;;;;;;;26.52;15.82;;;4.30;99.90;;;;;;5090152;28;20501;-80
2022/12/01 09:06:44;;;;;;;25.52;15.43;;;4.30;99.90;;;;;;5073940;28;20373;-79
2022/12/01 09:09:12;;;;;;;27.40;16.98;;;4.40;99.90;;;;;;5071060;28;20016;-79
2022/12/01 09:11:39;;;;;;;28.70;15.93;;;4.60;99.90;;;;;;5070545;28;20017;-80
2022/12/01 09:14:05;;;;;;;23.77;14.18;;;4.40;99.90;;;;;;5078625;28;20051;-80
2022/12/01 09:16:31;;;;;;;21.00;13.07;;;4.40;99.90;;;;;;5089125;28;20070;-79
2022/12/01 09:18:56;;;;;;;20.58;11.65;;;4.30;99.90;;;;;;5090408;28;20024;-79
2022/12/01 09:21:25;;;;;;;17.10;10.93;;;4.50;99.90;;;;;;5089254;28;20405;-79
2022/12/01 09:23:52;;;;;;;17.58;10.63;;;4.60;99.90;;;;;;5090396;28;20024;-79
2022/12/01 09:26:19;;;;;;;15.68;9.70;;;4.50;99.90;;;;;;5088817;28;20043;-79
2022/12/01 09:28:46;;;;;;;13.63;8.40;;;4.60;99.90;;;;;;5090792;28;20020;-79
2022/12/01 09:31:13;;;;;;;13.70;8.50;;;4.70;99.90;;;;;;5090228;28;20043;-80
2022/12/01 09:33:39;;;;;;;12.40;8.27;;;4.60;99.90;;;;;;5088815;28;20073;-79
2022/12/01 09:36:07;;;;;;;11.85;7.70;;;4.60;99.90;;;;;;5088927;28;20023;-79
2022/12/01 09:38:34;;;;;;;12.30;7.85;;;4.80;99.90;;;;;;5084540;28;20023;-79
2022/12/01 09:41:07;;;;;;;12.95;7.72;;;4.80;99.90;;;;;;5085573;28;20071;-79
2022/12/01 09:43:47;;;;;;;10.68;7.55;;;4.90;99.90;;;;;;5090404;28;20026;-79
2022/12/01 09:46:18;;;;;;;12.10;7.32;;;4.90;99.90;;;;;;5090366;28;20157;-79
2022/12/01 09:48:46;;;;;;;;;;;5.00;99.90;;;;;;5075102;28;20028;-80
2022/12/01 09:51:13;;;;;;;11.05;6.55;;;5.10;99.90;;;;;;5085925;28;19911;-80
2022/12/01 09:53:40;;;;;;;9.73;5.93;;;5.10;99.90;;;;;;5070332;28;20055;-79
2022/12/01 09:56:15;;;;;;;10.73;6.28;;;5.10;99.90;;;;;;5068749;28;20025;-80
2022/12/01 09:58:41;;;;;;;10.77;6.38;;;5.00;99.90;;;;;;5071154;28;20034;-79
2022/12/01 10:01:16;;;;;;;9.98;6.25;;;5.10;99.90;;;;;;5073875;28;20067;-79
2022/12/01 10:03:47;;;;;;;8.35;5.65;;;5.00;99.90;;;;;;5089056;28;20078;-79
2022/12/01 10:06:18;;;;;;;11.05;6.13;;;5.10;99.90;;;;;;5073956;28;20012;-79
2022/12/01 10:09:00;;;;;;;9.40;6.20;;;5.10;99.90;;;;;;5074459;28;20053;-80
2022/12/01 10:11:33;;;;;;;9.60;6.28;;;5.00;99.90;;;;;;5075022;28;20485;-79
2022/12/01 10:13:59;;;;;;;10.63;6.20;;;4.90;99.90;;;;;;5083098;28;20542;-80
2022/12/01 10:16:37;;;;;;;9.48;6.45;;;4.80;99.90;;;;;;5089084;28;20024;-80
2022/12/01 10:19:37;;;;;;;10.55;6.97;;;4.90;99.90;;;;;;5073386;28;20028;-79
2022/12/01 10:22:57;;;;;;;11.90;7.50;;;4.90;99.90;;;;;;5073723;28;20028;-79
2022/12/01 10:25:26;;;;;;;11.57;7.85;;;4.80;99.90;;;;;;4991508;28;20470;-79
2022/12/01 10:28:27;;;;;;;14.60;10.18;;;4.90;99.90;;;;;;4976045;28;20525;-80
2022/12/01 10:31:00;;;;;;;14.13;8.95;;;4.80;99.90;;;;;;4965648;28;20047;-79
2022/12/01 10:33:33;;;;;;;14.52;8.90;;;5.00;99.90;;;;;;4972198;28;20137;-79
2022/12/01 10:35:58;;;;;;;12.90;8.02;;;5.10;99.90;;;;;;4972005;28;20034;-80
2022/12/01 10:38:33;;;;;;;12.25;7.82;;;5.30;99.90;;;;;;4972408;28;20031;-80
2022/12/01 10:41:01;;;;;;;12.02;7.50;;;5.30;99.90;;;;;;4972719;28;20125;-79
2022/12/01 10:43:47;;;;;;;10.55;7.47;;;5.30;99.90;;;;;;4971800;28;20037;-80
2022/12/01 10:46:22;;;;;;;9.68;7.28;;;5.40;99.90;;;;;;4978770;28;20042;-80
2022/12/01 10:48:56;;;;;;;10.20;7.28;;;5.50;99.90;;;;;;4974613;28;20110;-79
2022/12/01 10:51:23;;;;;;;11.13;6.95;;;5.70;99.90;;;;;;4972207;28;20061;-80
2022/12/01 10:53:56;;;;;;;10.20;6.57;;;5.90;99.90;;;;;;4955559;28;20062;-80
2022/12/01 10:56:21;;;;;;;9.77;6.00;;;5.70;99.90;;;;;;4971621;28;20053;-80
2022/12/01 10:58:49;;;;;;;8.82;5.72;;;5.60;99.90;;;;;;4996821;28;20504;-80
2022/12/01 11:01:21;;;;;;;9.63;6.05;;;5.80;99.90;;;;;;5070559;28;20078;-80
2022/12/01 11:03:54;;;;;;;13.93;7.95;;;5.70;99.90;;;;;;5089757;28;20024;-80
2022/12/01 11:06:28;;;;;;;14.38;8.75;;;5.60;99.90;;;;;;5084252;28;20070;-80
2022/12/01 11:08:57;;;;;;;16.73;10.45;;;5.60;99.90;;;;;;5059438;28;20025;-80
2022/12/01 11:11:32;;;;;;;16.67;9.63;;;5.80;99.90;;;;;;5071645;28;20520;-80
2022/12/01 11:14:18;;;;;;;13.57;8.57;;;6.10;99.90;;;;;;5080130;28;20085;-80
2022/12/01 11:16:46;;;;;;;13.25;8.10;;;6.40;99.90;;;;;;5092401;28;20036;-80
2022/12/01 11:19:27;;;;;;;12.52;7.43;;;6.60;99.90;;;;;;5092866;28;20024;-80
2022/12/01 11:21:56;;;;;;;15.15;7.72;;;6.80;99.90;;;;;;5058021;28;20032;-80
2022/12/01 11:24:42;;;;;;;11.73;6.97;;;6.70;99.90;;;;;;5072613;28;20017;-80
2022/12/01 11:27:17;;;;;;;11.25;7.30;;;6.60;99.90;;;;;;5072378;28;20036;-80
2022/12/01 11:29:47;;;;;;;12.88;7.75;;;6.60;99.90;;;;;;5087601;28;20081;-80
2022/12/01 11:32:18;;;;;;;15.73;8.68;;;6.40;99.90;;;;;;5072176;28;20024;-80
2022/12/01 11:35:09;;;;;;;14.82;8.57;;;6.30;99.90;;;;;;5072896;28;20021;-80
2022/12/01 11:37:38;;;;;;;14.02;7.78;;;6.50;99.90;;;;;;5061886;28;20048;-80
2022/12/01 11:40:22;;;;;;;13.73;8.70;;;6.60;99.90;;;;;;5088265;28;20025;-80
2022/12/01 11:42:51;;;;;;;13.38;8.60;;;6.40;99.90;;;;;;5072672;28;20545;-80
2022/12/01 11:45:19;;;;;;;15.95;9.70;;;6.40;99.90;;;;;;5072135;28;20109;-80
2022/12/01 11:48:00;;;;;;;15.90;9.52;;;6.50;99.90;;;;;;5065565;28;20339;-80
2022/12/01 11:50:29;;;;;;;13.13;8.30;;;6.50;99.90;;;;;;5067701;28;20091;-80
2022/12/01 11:52:54;;;;;;;13.82;8.52;;;6.50;99.90;;;;;;5071763;28;20032;-80
2022/12/01 11:55:23;;;;;;;13.25;8.50;;;6.30;99.90;;;;;;5071807;28;20058;-80
2022/12/01 11:57:53;;;;;;;12.93;8.48;;;6.30;99.90;;;;;;5071873;28;20021;-80
2022/12/01 12:00:22;;;;;;;11.75;7.80;;;6.50;99.90;;;;;;5071535;28;20059;-80
2022/12/01 12:03:11;;;;;;;10.15;7.28;;;6.80;99.90;;;;;;5071375;28;20058;-80
2022/12/01 12:06:17;;;;;;;10.40;7.28;;;6.80;99.90;;;;;;5070432;28;20052;-80
2022/12/01 12:09:11;;;;;;;7.35;5.65;;;7.00;99.90;;;;;;5071571;28;20036;-80
2022/12/01 12:12:10;;;;;;;9.23;6.57;;;7.00;99.90;;;;;;5069651;28;20493;-80
2022/12/01 12:14:42;;;;;;;11.57;6.97;;;6.90;99.90;;;;;;5084073;28;20560;-80
2022/12/01 12:17:25;;;;;;;8.50;6.20;;;6.80;99.90;;;;;;5073216;28;20048;-80
2022/12/01 12:20:21;;;;;;;9.77;6.57;;;7.00;99.90;;;;;;5086950;28;20036;-80
2022/12/01 12:23:01;;;;;;;8.55;6.53;;;7.10;99.90;;;;;;5091984;28;20024;-80
2022/12/01 12:25:54;;;;;;;10.13;6.67;;;7.10;99.90;;;;;;5092193;28;20051;-80
2022/12/01 12:28:53;;;;;;;7.57;5.40;;;7.10;99.90;;;;;;5071686;28;20794;-80
2022/12/01 12:31:46;;;;;;;8.07;6.10;;;7.20;99.90;;;;;;5071323;28;20028;-80
2022/12/01 12:34:25;;;;;;;8.35;5.88;;;7.20;99.90;;;;;;5063312;28;20020;-80
2022/12/01 12:37:20;;;;;;;10.35;7.28;;;7.20;99.90;;;;;;5072275;28;20043;-80
2022/12/01 12:40:16;;;;;;;10.60;7.25;;;7.00;99.90;;;;;;5069500;28;20138;-80
2022/12/01 12:42:45;;;;;;;9.32;6.13;;;7.00;99.90;;;;;;5070172;28;20054;-80
2022/12/01 12:45:49;;;;;;;9.18;6.25;;;7.30;99.90;;;;;;5069083;28;20505;-80
2022/12/01 12:48:37;;;;;;;8.80;6.50;;;7.20;99.90;;;;;;5068093;28;20059;-80
2022/12/01 12:51:09;;;;;;;9.48;6.60;;;7.10;99.90;;;;;;5070211;28;20490;-80
2022/12/01 12:53:45;;;;;;;10.90;7.53;;;7.10;99.90;;;;;;5071386;28;20028;-80
2022/12/01 12:56:16;;;;;;;10.85;7.60;;;7.00;99.90;;;;;;5071566;28;20047;-80
2022/12/01 12:59:07;;;;;;;9.27;7.25;;;6.90;99.90;;;;;;5070253;28;20130;-80
2022/12/01 13:01:38;;;;;;;9.48;7.30;;;7.00;99.90;;;;;;5063799;28;20505;-80
2022/12/01 13:04:18;;;;;;;10.40;7.77;;;6.80;99.90;;;;;;5069584;28;20123;-80
2022/12/01 13:07:22;;;;;;;8.77;6.55;;;6.80;99.90;;;;;;5069868;28;20131;-80